createdAt,value
2019-05-21T00:00:27.581Z,97853.16
2019-05-21T00:02:56.322Z,97861.13
2019-05-21T00:05:25.018Z,97852.48
2019-05-21T00:07:53.726Z,97845.98
2019-05-21T00:10:22.498Z,97846.07
2019-05-21T00:12:51.230Z,97849.09
2019-05-21T00:15:21.018Z,97846.91
2019-05-21T00:17:49.717Z,97840.02
2019-05-21T00:20:18.519Z,97843.58
2019-05-21T00:22:47.256Z,97840.52
2019-05-21T00:25:17.366Z,97839.24
2019-05-21T00:27:46.432Z,97841.02
2019-05-21T00:30:51.027Z,97849.74
2019-05-21T00:33:55.653Z,97857.11
2019-05-21T00:37:01.698Z,97860.16
2019-05-21T00:40:06.797Z,97855.35
2019-05-21T00:42:38.416Z,97855.78
2019-05-21T00:45:12.006Z,97865.33
2019-05-21T00:47:40.692Z,97861.41
2019-05-21T00:50:10.393Z,97857.08
2019-05-21T00:52:39.140Z,97852.74
2019-05-21T00:55:08.074Z,97845.85
2019-05-21T00:57:36.823Z,97843.69
2019-05-21T01:00:08.838Z,97839.80
2019-05-21T01:02:37.588Z,97844.55
2019-05-21T01:05:06.694Z,97852.84
2019-05-21T01:07:35.452Z,97857.23
2019-05-21T01:10:06.371Z,97855.90
2019-05-21T01:12:35.085Z,97861.54
2019-05-21T01:15:05.902Z,97864.16
2019-05-21T01:17:34.604Z,97862.84
2019-05-21T01:20:03.351Z,97864.58
2019-05-21T01:22:32.059Z,97868.46
2019-05-21T01:25:00.767Z,97873.68
2019-05-21T01:27:29.471Z,97871.05
2019-05-21T01:29:58.172Z,97874.08
2019-05-21T01:32:26.911Z,97881.50
2019-05-21T01:34:55.610Z,97884.13
2019-05-21T01:37:24.318Z,97886.73
2019-05-21T01:39:53.027Z,97895.44
2019-05-21T01:42:21.731Z,97904.13
2019-05-21T01:44:50.465Z,97907.19
2019-05-21T01:47:19.176Z,97902.83
2019-05-21T01:49:47.880Z,97901.98
2019-05-21T01:52:16.601Z,97901.55
2019-05-21T01:54:45.312Z,97913.25
2019-05-21T01:57:14.047Z,97908.05
2019-05-21T01:59:42.753Z,97904.56
2019-05-21T02:02:11.475Z,97908.07
2019-05-21T02:04:40.184Z,97903.70
2019-05-21T02:07:08.885Z,97909.77
2019-05-21T02:09:55.565Z,97908.91
2019-05-21T02:12:24.270Z,97906.75
2019-05-21T02:14:52.971Z,97900.22
2019-05-21T02:17:21.684Z,97902.83
2019-05-21T02:19:50.395Z,97895.83
2019-05-21T02:22:19.146Z,97897.14
2019-05-21T02:24:47.955Z,97905.35
2019-05-21T02:27:16.667Z,97900.15
2019-05-21T02:29:45.386Z,97904.02
2019-05-21T02:32:14.087Z,97903.17
2019-05-21T02:34:42.845Z,97911.44
2019-05-21T02:37:11.559Z,97920.97
2019-05-21T02:39:40.260Z,97918.37
2019-05-21T02:42:08.971Z,97920.52
2019-05-21T02:44:37.667Z,97921.36
2019-05-21T02:47:06.416Z,97926.98
2019-05-21T02:49:35.150Z,97929.12
2019-05-21T02:52:03.852Z,97926.09
2019-05-21T02:54:40.737Z,97931.34
2019-05-21T02:57:02.995Z,97927.44
2019-05-21T02:59:31.749Z,97920.94
2019-05-21T03:02:05.024Z,97924.42
2019-05-21T03:04:33.838Z,97925.72
2019-05-21T03:07:17.525Z,97920.05
2019-05-21T03:09:48.137Z,97920.48
2019-05-21T03:12:17.922Z,97913.97
2019-05-21T03:14:47.377Z,97914.85
2019-05-21T03:17:16.083Z,97914.85
2019-05-21T03:19:44.872Z,97918.75
2019-05-21T03:22:13.584Z,97920.89
2019-05-21T03:24:42.403Z,97927.02
2019-05-21T03:27:11.712Z,97927.91
2019-05-21T03:29:40.425Z,97927.58
2019-05-21T03:32:09.178Z,97931.00
2019-05-21T03:34:38.010Z,97923.07
2019-05-21T03:37:06.730Z,97925.83
2019-05-21T03:39:35.502Z,97917.22
2019-05-21T03:42:04.309Z,97920.28
2019-05-21T03:44:33.324Z,97924.28
2019-05-21T03:47:02.020Z,97929.44
2019-05-21T03:49:30.740Z,97933.77
2019-05-21T03:51:59.483Z,97928.58
2019-05-21T03:54:28.190Z,97932.39
2019-05-21T03:56:56.901Z,97931.70
2019-05-21T03:59:25.668Z,97929.45
2019-05-21T04:01:54.373Z,97937.04
2019-05-21T04:04:23.082Z,97944.06
2019-05-21T04:06:52.785Z,97939.22
2019-05-21T04:09:21.779Z,97938.47
2019-05-21T04:11:53.300Z,97934.45
2019-05-21T04:14:34.263Z,97947.22
2019-05-21T04:17:07.591Z,97939.97
2019-05-21T04:19:44.060Z,97943.83
2019-05-21T04:22:15.718Z,97946.44
2019-05-21T04:24:44.926Z,97952.58
2019-05-21T04:27:14.839Z,97947.50
2019-05-21T04:29:43.751Z,97959.45
2019-05-21T04:32:12.455Z,97962.39
2019-05-21T04:34:41.299Z,97970.41
2019-05-21T04:37:11.786Z,97970.79
2019-05-21T04:39:40.457Z,97972.19
2019-05-21T04:42:09.291Z,97972.48
2019-05-21T04:44:37.986Z,97969.98
2019-05-21T04:47:06.693Z,97976.50
2019-05-21T04:49:35.412Z,97981.61
2019-05-21T04:52:04.117Z,97979.32
2019-05-21T04:54:32.872Z,97971.48
2019-05-21T04:57:01.587Z,97972.95
2019-05-21T04:59:30.307Z,97973.78
2019-05-21T05:01:59.047Z,97976.13
2019-05-21T05:04:27.766Z,97974.44
2019-05-21T05:06:56.513Z,97980.77
2019-05-21T05:09:25.220Z,97982.25
2019-05-21T05:11:53.924Z,97980.42
2019-05-21T05:14:22.641Z,97978.18
2019-05-21T05:16:54.303Z,97982.95
2019-05-21T05:19:23.043Z,97981.33
2019-05-21T05:21:51.758Z,97982.08
2019-05-21T05:24:20.474Z,97980.51
2019-05-21T05:26:49.178Z,97977.06
2019-05-21T05:29:17.892Z,97971.14
2019-05-21T05:31:46.647Z,97973.75
2019-05-21T05:34:15.361Z,97973.09
2019-05-21T05:36:44.073Z,97978.09
2019-05-21T05:39:14.551Z,97975.04
2019-05-21T05:41:43.264Z,97979.92
2019-05-21T05:44:12.023Z,97978.70
2019-05-21T05:46:40.764Z,97979.00
2019-05-21T05:49:11.039Z,97979.38
2019-05-21T05:51:39.752Z,97978.23
2019-05-21T05:54:08.486Z,97978.45
2019-05-21T05:56:37.217Z,97979.22
2019-05-21T05:59:05.932Z,97981.41
2019-05-21T06:01:35.247Z,97985.03
2019-05-21T06:04:03.962Z,97984.62
2019-05-21T06:06:32.678Z,97984.43
2019-05-21T06:09:01.429Z,97981.40
2019-05-21T06:11:30.134Z,97972.92
2019-05-21T06:13:58.840Z,97972.11
2019-05-21T06:16:27.563Z,97971.30
2019-05-21T06:18:56.275Z,97970.84
2019-05-21T06:21:25.042Z,97969.87
2019-05-21T06:23:53.748Z,97974.44
2019-05-21T06:26:22.566Z,97971.94
2019-05-21T06:28:51.299Z,97977.14
2019-05-21T06:31:20.010Z,97972.67
2019-05-21T06:33:48.755Z,97968.09
2019-05-21T06:36:17.491Z,97974.02
2019-05-21T06:38:46.182Z,97969.55
2019-05-21T06:41:15.173Z,97969.07
2019-05-21T06:43:43.894Z,97970.42
2019-05-21T06:46:12.654Z,97974.53
2019-05-21T06:48:41.373Z,97970.15
2019-05-21T06:51:10.196Z,97967.75
2019-05-21T06:53:38.964Z,97971.41
2019-05-21T06:56:07.979Z,97970.12
2019-05-21T06:58:37.000Z,97971.45
2019-05-21T07:01:05.836Z,97977.45
2019-05-21T07:03:34.536Z,97972.17
2019-05-21T07:06:03.252Z,97975.25
2019-05-21T07:08:35.108Z,97968.88
2019-05-21T07:11:02.430Z,97965.74
2019-05-21T07:13:31.330Z,97960.11
2019-05-21T07:16:00.054Z,97952.38
2019-05-21T07:18:28.735Z,97955.33
2019-05-21T07:20:57.454Z,97955.64
2019-05-21T07:23:26.225Z,97944.95
2019-05-21T07:25:54.944Z,97959.20
2019-05-21T07:28:23.666Z,97957.47
2019-05-21T07:30:52.391Z,97953.00
2019-05-21T07:33:21.978Z,97956.95
2019-05-21T07:35:50.733Z,97957.95
2019-05-21T07:38:19.448Z,97947.57
2019-05-21T07:40:48.162Z,97951.94
2019-05-21T07:43:16.903Z,97949.84
2019-05-21T07:45:45.618Z,97951.17
2019-05-21T07:48:14.834Z,97948.80
2019-05-21T07:50:43.585Z,97947.61
2019-05-21T07:53:12.298Z,97953.11
2019-05-21T07:55:41.015Z,97942.73
2019-05-21T07:58:09.786Z,97944.16
2019-05-21T08:00:38.494Z,97928.52
2019-05-21T08:03:07.209Z,97937.95
2019-05-21T08:05:35.936Z,97937.23
2019-05-21T08:08:04.646Z,97933.17
2019-05-21T08:10:33.391Z,97934.87
2019-05-21T08:13:02.100Z,97929.66
2019-05-21T08:15:30.806Z,97931.48
2019-05-21T08:17:59.523Z,97933.06
2019-05-21T08:20:28.524Z,97923.23
2019-05-21T08:22:57.282Z,97887.78
2019-05-21T08:25:25.994Z,97928.87
2019-05-21T08:27:54.709Z,97934.44
2019-05-21T08:30:23.490Z,97927.02
2019-05-21T08:32:52.216Z,97920.01
2019-05-21T08:35:20.963Z,97924.02
2019-05-21T08:37:49.678Z,97927.23
2019-05-21T08:40:18.887Z,97921.83
2019-05-21T08:42:47.597Z,97924.93
2019-05-21T08:45:16.418Z,97920.59
2019-05-21T08:47:45.163Z,97918.42
2019-05-21T08:50:14.064Z,97920.59
2019-05-21T08:52:42.778Z,97913.73
2019-05-21T08:55:11.485Z,97919.98
2019-05-21T08:57:40.191Z,97920.16
2019-05-21T09:00:15.552Z,97916.00
2019-05-21T09:02:44.253Z,97906.80
2019-05-21T09:05:13.156Z,97907.89
2019-05-21T09:07:41.872Z,97909.08
2019-05-21T09:10:10.881Z,97903.22
2019-05-21T09:12:39.584Z,97903.13
2019-05-21T09:15:09.685Z,97903.00
2019-05-21T09:17:38.439Z,97902.03
2019-05-21T09:20:09.215Z,97908.45
2019-05-21T09:22:39.263Z,97909.70
2019-05-21T09:25:08.060Z,97909.25
2019-05-21T09:27:37.469Z,97912.97
2019-05-21T09:30:11.362Z,97904.55
2019-05-21T09:32:40.039Z,97897.68
2019-05-21T09:35:10.235Z,97896.16
2019-05-21T09:37:39.456Z,97889.05
2019-05-21T09:40:09.757Z,97891.64
2019-05-21T09:42:38.605Z,97892.83
2019-05-21T09:45:08.729Z,97891.63
2019-05-21T09:47:37.561Z,97882.00
2019-05-21T09:50:07.958Z,97883.27
2019-05-21T09:52:36.651Z,97881.00
2019-05-21T09:55:08.947Z,97875.66
2019-05-21T09:57:39.436Z,97876.47
2019-05-21T10:00:20.771Z,97870.55
2019-05-21T10:02:49.487Z,97867.45
2019-05-21T10:05:18.289Z,97868.55
2019-05-21T10:07:47.048Z,97872.80
2019-05-21T10:10:15.855Z,97862.56
2019-05-21T10:12:44.558Z,97855.26
2019-05-21T10:15:13.868Z,97852.96
2019-05-21T10:17:42.588Z,97853.81
2019-05-21T10:20:11.428Z,97857.06
2019-05-21T10:22:40.136Z,97857.73
2019-05-21T10:25:08.682Z,97856.07
2019-05-21T10:27:37.416Z,97866.19
2019-05-21T10:30:06.921Z,97859.63
2019-05-21T10:32:35.619Z,97851.45
2019-05-21T10:35:07.459Z,97857.66
2019-05-21T10:37:36.303Z,97849.83
2019-05-21T10:40:07.166Z,97852.15
2019-05-21T10:42:35.957Z,97846.69
2019-05-21T10:45:06.319Z,97839.02
2019-05-21T10:47:35.037Z,97841.50
2019-05-21T10:50:05.554Z,97844.25
2019-05-21T10:52:34.301Z,97834.70
2019-05-21T10:55:03.016Z,97831.86
2019-05-21T10:57:31.728Z,97827.73
2019-05-21T11:00:00.443Z,97826.94
2019-05-21T11:02:33.489Z,97822.84
2019-05-21T11:05:09.818Z,97807.59
2019-05-21T11:07:38.623Z,97813.09
2019-05-21T11:10:09.090Z,97814.55
2019-05-21T11:12:37.786Z,97818.44
2019-05-21T11:15:07.896Z,97811.50
2019-05-21T11:17:50.043Z,97816.14
2019-05-21T11:20:07.239Z,97802.44
2019-05-21T11:22:35.980Z,97797.45
2019-05-21T11:25:06.382Z,97794.98
2019-05-21T11:27:35.087Z,97805.47
2019-05-21T11:30:05.119Z,97802.72
2019-05-21T11:32:33.822Z,97799.08
2019-05-21T11:35:02.575Z,97794.79
2019-05-21T11:37:31.288Z,97787.89
2019-05-21T11:39:59.993Z,97793.56
2019-05-21T11:42:28.714Z,97790.83
2019-05-21T11:44:57.431Z,97790.83
2019-05-21T11:47:26.181Z,97805.94
2019-05-21T11:49:54.907Z,97800.07
2019-05-21T11:52:23.612Z,97800.07
2019-05-21T11:54:55.789Z,97793.41
2019-05-21T11:57:22.759Z,97792.69
2019-05-21T11:59:51.504Z,97793.73
2019-05-21T12:02:20.220Z,97794.36
2019-05-21T12:04:48.939Z,97802.41
2019-05-21T12:07:17.665Z,97803.48
2019-05-21T12:09:46.370Z,97787.98
2019-05-21T12:12:16.584Z,97791.69
2019-05-21T12:14:45.294Z,97790.97
2019-05-21T12:17:14.005Z,97785.86
2019-05-21T12:19:42.715Z,97777.80
2019-05-21T12:22:11.423Z,97778.98
2019-05-21T12:24:40.138Z,97773.14
2019-05-21T12:27:08.839Z,97763.96
2019-05-21T12:29:37.649Z,97763.96
2019-05-21T12:32:06.367Z,97770.52
2019-05-21T12:34:38.768Z,97770.52
2019-05-21T12:37:05.633Z,97768.04
2019-05-21T12:39:34.451Z,97766.03
2019-05-21T12:42:03.228Z,97766.83
2019-05-21T12:44:31.979Z,97765.45
2019-05-21T12:47:00.686Z,97767.63
2019-05-21T12:49:29.433Z,97762.34
2019-05-21T12:51:58.135Z,97761.45
2019-05-21T12:54:26.845Z,97758.77
2019-05-21T12:56:55.591Z,97756.25
2019-05-21T12:59:24.292Z,97759.07
2019-05-21T13:01:53.024Z,97754.77
2019-05-21T13:04:21.754Z,97766.26
2019-05-21T13:06:50.472Z,97774.05
2019-05-21T13:09:32.418Z,97767.56
2019-05-21T13:11:49.621Z,97769.44
2019-05-21T13:14:19.001Z,97771.60
2019-05-21T13:16:48.044Z,97770.60
2019-05-21T13:19:16.763Z,97755.31
2019-05-21T13:21:45.588Z,97766.88
2019-05-21T13:24:14.281Z,97768.39
2019-05-21T13:26:42.989Z,97772.19
2019-05-21T13:29:11.711Z,97777.70
2019-05-21T13:31:40.424Z,97776.21
2019-05-21T13:34:09.170Z,97771.90
2019-05-21T13:36:37.879Z,97764.97
2019-05-21T13:39:09.186Z,97767.55
2019-05-21T13:41:37.906Z,97766.35
2019-05-21T13:44:06.620Z,97762.95
2019-05-21T13:46:35.849Z,97764.98
2019-05-21T13:49:05.074Z,97760.02
2019-05-21T13:51:33.780Z,97764.47
2019-05-21T13:54:02.535Z,97762.81
2019-05-21T13:56:31.239Z,97757.69
2019-05-21T13:59:00.054Z,97754.53
2019-05-21T14:01:39.992Z,97751.43
2019-05-21T14:03:59.212Z,97751.56
2019-05-21T14:06:27.921Z,97744.06
2019-05-21T14:08:56.651Z,97745.30
2019-05-21T14:11:25.758Z,97752.80
2019-05-21T14:13:54.624Z,97752.95
2019-05-21T14:16:23.642Z,97754.32
2019-05-21T14:18:52.644Z,97750.73
2019-05-21T14:21:21.375Z,97750.73
2019-05-21T14:23:50.082Z,97750.30
2019-05-21T14:26:18.791Z,97751.92
2019-05-21T14:28:47.507Z,97744.39
2019-05-21T14:31:16.246Z,97744.39
2019-05-21T14:33:46.867Z,97748.09
2019-05-21T14:36:15.454Z,97749.43
2019-05-21T14:38:44.167Z,97756.05
2019-05-21T14:41:12.875Z,97755.22
2019-05-21T14:43:41.585Z,97745.25
2019-05-21T14:46:10.220Z,97749.55
2019-05-21T14:48:39.030Z,97733.33
2019-05-21T14:51:07.733Z,97733.33
2019-05-21T14:53:36.438Z,97741.15
2019-05-21T14:56:05.202Z,97744.80
2019-05-21T14:58:33.914Z,97736.11
2019-05-21T15:01:02.618Z,97727.20
2019-05-21T15:03:31.365Z,97737.50
2019-05-21T15:06:00.074Z,97739.92
2019-05-21T15:08:28.813Z,97735.64
2019-05-21T15:10:57.503Z,97735.64
2019-05-21T15:13:26.216Z,97729.19
2019-05-21T15:15:55.015Z,97723.55
2019-05-21T15:18:23.770Z,97729.98
2019-05-21T15:20:56.844Z,97728.15
2019-05-21T15:23:25.672Z,97728.15
2019-05-21T15:25:54.370Z,97731.42
2019-05-21T15:28:23.085Z,97724.74
2019-05-21T15:30:51.787Z,97728.84
2019-05-21T15:33:20.544Z,97728.92
2019-05-21T15:35:49.259Z,97731.21
2019-05-21T15:38:18.141Z,97724.74
2019-05-21T15:40:46.890Z,97723.45
2019-05-21T15:43:15.604Z,97721.58
2019-05-21T15:45:44.307Z,97721.58
2019-05-21T15:48:13.051Z,97739.22
2019-05-21T15:50:41.759Z,97739.25
2019-05-21T15:53:10.482Z,97734.11
2019-05-21T15:55:39.177Z,97744.16
2019-05-21T15:58:07.980Z,97737.27
2019-05-21T16:00:36.723Z,97743.82
2019-05-21T16:03:05.629Z,97701.13
2019-05-21T16:05:34.647Z,97760.89
2019-05-21T16:08:03.391Z,97763.14
2019-05-21T16:10:32.113Z,97765.47
2019-05-21T16:13:00.823Z,97769.34
2019-05-21T16:15:29.542Z,97774.21
2019-05-21T16:17:58.245Z,97771.88
2019-05-21T16:20:26.993Z,97774.70
2019-05-21T16:22:55.826Z,97769.81
2019-05-21T16:25:24.592Z,97769.90
2019-05-21T16:27:53.335Z,97774.20
2019-05-21T16:30:22.049Z,97778.62
2019-05-21T16:32:50.766Z,97780.91
2019-05-21T16:35:19.583Z,97786.00
2019-05-21T16:37:48.295Z,97785.84
2019-05-21T16:40:18.131Z,97781.86
2019-05-21T16:42:46.837Z,97786.66
2019-05-21T16:45:16.980Z,97791.45
2019-05-21T16:47:46.753Z,97794.51
2019-05-21T16:50:16.110Z,97801.90
2019-05-21T16:52:45.271Z,97793.58
2019-05-21T16:55:14.790Z,97802.45
2019-05-21T16:57:43.500Z,97809.08
2019-05-21T17:00:15.212Z,97810.38
2019-05-21T17:02:44.126Z,97806.94
2019-05-21T17:05:12.990Z,97817.94
2019-05-21T17:07:41.682Z,97821.64
2019-05-21T17:10:12.191Z,97824.33
2019-05-21T17:12:40.947Z,97830.65
2019-05-21T17:15:09.961Z,97831.06
2019-05-21T17:17:38.706Z,97833.91
2019-05-21T17:20:10.730Z,97841.79
2019-05-21T17:22:39.505Z,97845.56
2019-05-21T17:25:10.118Z,97848.52
2019-05-21T17:27:38.833Z,97856.10
2019-05-21T17:30:09.363Z,97859.28
2019-05-21T17:32:39.036Z,97869.44
2019-05-21T17:35:08.862Z,97861.52
2019-05-21T17:37:37.698Z,97866.30
2019-05-21T17:40:07.494Z,97867.45
2019-05-21T17:42:36.201Z,97874.17
2019-05-21T17:45:07.908Z,97877.61
2019-05-21T17:47:36.627Z,97884.09
2019-05-21T17:50:09.420Z,97887.61
2019-05-21T17:52:38.176Z,97889.37
2019-05-21T17:55:07.212Z,97895.47
2019-05-21T17:57:36.005Z,97896.91
2019-05-21T18:00:07.306Z,97899.55
2019-05-21T18:02:36.413Z,97900.73
2019-05-21T18:05:07.519Z,97901.51
2019-05-21T18:07:37.473Z,97899.72
2019-05-21T18:10:09.275Z,97899.66
2019-05-21T18:12:38.848Z,97912.78
2019-05-21T18:15:09.057Z,97919.05
2019-05-21T18:17:37.763Z,97923.53
2019-05-21T18:20:11.349Z,97930.25
2019-05-21T18:22:42.052Z,97937.62
2019-05-21T18:25:11.661Z,97944.38
2019-05-21T18:27:40.416Z,97949.33
2019-05-21T18:30:09.633Z,97948.93
2019-05-21T18:32:38.341Z,97954.33
2019-05-21T18:35:08.458Z,97961.49
2019-05-21T18:37:38.421Z,97962.62
2019-05-21T18:40:09.160Z,97976.06
2019-05-21T18:42:37.962Z,97970.88
2019-05-21T18:45:07.462Z,97973.06
2019-05-21T18:47:36.310Z,97976.72
2019-05-21T18:50:07.577Z,97982.28
2019-05-21T18:52:36.285Z,97984.92
2019-05-21T18:55:06.904Z,97987.95
2019-05-21T18:57:35.742Z,97993.56
2019-05-21T19:00:06.920Z,97995.33
2019-05-21T19:02:35.620Z,98004.09
2019-05-21T19:05:06.265Z,98011.44
2019-05-21T19:07:35.070Z,98009.41
2019-05-21T19:10:05.386Z,98020.51
2019-05-21T19:12:38.191Z,98016.69
2019-05-21T19:15:06.524Z,98025.22
2019-05-21T19:17:36.066Z,98031.92
2019-05-21T19:20:06.881Z,98036.11
2019-05-21T19:22:36.485Z,98033.23
2019-05-21T19:25:09.194Z,98037.69
2019-05-21T19:27:37.926Z,98042.73
2019-05-21T19:30:09.242Z,98042.52
2019-05-21T19:32:38.011Z,98042.70
2019-05-21T19:35:07.656Z,98047.45
2019-05-21T19:37:36.376Z,98053.01
2019-05-21T19:40:06.295Z,98051.73
2019-05-21T19:42:35.026Z,98058.48
2019-05-21T19:45:07.288Z,98061.48
2019-05-21T19:47:36.096Z,98067.21
2019-05-21T19:50:07.759Z,98067.21
2019-05-21T19:52:36.533Z,98076.41
2019-05-21T19:55:07.150Z,98076.15
2019-05-21T19:57:36.376Z,98077.06
2019-05-21T20:00:07.613Z,98078.30
2019-05-21T20:02:36.629Z,98089.84
2019-05-21T20:05:07.404Z,98087.51
2019-05-21T20:07:36.119Z,98083.09
2019-05-21T20:10:09.128Z,98082.25
2019-05-21T20:12:38.299Z,98090.78
2019-05-21T20:15:08.614Z,98091.04
2019-05-21T20:17:39.008Z,98088.36
2019-05-21T20:20:10.647Z,98091.55
2019-05-21T20:22:41.044Z,98086.66
2019-05-21T20:25:11.340Z,98086.87
2019-05-21T20:27:40.667Z,98084.11
2019-05-21T20:30:13.674Z,98095.42
2019-05-21T20:32:44.391Z,98097.83
2019-05-21T20:35:15.445Z,98100.22
2019-05-21T20:37:45.207Z,98097.37
2019-05-21T20:40:15.065Z,98096.20
2019-05-21T20:42:44.979Z,98095.94
2019-05-21T20:45:15.751Z,98095.13
2019-05-21T20:47:46.148Z,98100.53
2019-05-21T20:50:16.647Z,98100.12
2019-05-21T20:52:46.192Z,98101.46
2019-05-21T20:55:17.221Z,98103.22
2019-05-21T20:57:46.010Z,98101.55
2019-05-21T21:00:18.041Z,98104.62
2019-05-21T21:02:47.340Z,98107.71
2019-05-21T21:05:17.049Z,98103.87
2019-05-21T21:07:45.756Z,98106.03
2019-05-21T21:10:14.764Z,98106.46
2019-05-21T21:12:44.821Z,98107.35
2019-05-21T21:15:14.719Z,98108.17
2019-05-21T21:17:44.327Z,98101.20
2019-05-21T21:20:13.346Z,98097.70
2019-05-21T21:22:42.059Z,98099.46
2019-05-21T21:25:12.599Z,98097.30
2019-05-21T21:27:42.513Z,98090.38
2019-05-21T21:30:11.605Z,98085.67
2019-05-21T21:32:40.414Z,98088.23
2019-05-21T21:35:10.920Z,98093.91
2019-05-21T21:37:39.665Z,98093.96
2019-05-21T21:40:10.139Z,98092.69
2019-05-21T21:42:39.752Z,98088.84
2019-05-21T21:45:09.594Z,98084.94
2019-05-21T21:47:39.600Z,98075.37
2019-05-21T21:50:08.701Z,98078.46
2019-05-21T21:52:37.515Z,98080.69
2019-05-21T21:55:07.415Z,98088.98
2019-05-21T21:57:36.273Z,98092.91
2019-05-21T22:00:13.236Z,98095.95
2019-05-21T22:02:42.800Z,98102.49
2019-05-21T22:05:12.812Z,98106.44
2019-05-21T22:07:41.510Z,98102.94
2019-05-21T22:10:11.392Z,98098.60
2019-05-21T22:12:40.213Z,98103.39
2019-05-21T22:15:09.955Z,98098.61
2019-05-21T22:17:38.671Z,98103.41
2019-05-21T22:20:09.492Z,98102.94
2019-05-21T22:22:38.303Z,98101.20
2019-05-21T22:25:07.516Z,98104.23
2019-05-21T22:27:36.266Z,98099.88
2019-05-21T22:30:06.506Z,98091.20
2019-05-21T22:32:35.351Z,98087.75
2019-05-21T22:35:04.775Z,98090.35
2019-05-21T22:37:33.478Z,98086.88
2019-05-21T22:40:02.314Z,98094.74
2019-05-21T22:42:31.337Z,98092.11
2019-05-21T22:45:07.762Z,98096.03
2019-05-21T22:47:31.176Z,98092.58
2019-05-21T22:49:59.892Z,98094.30
2019-05-21T22:52:28.804Z,98098.22
2019-05-21T22:54:57.511Z,98088.66
2019-05-21T22:57:26.466Z,98089.05
2019-05-21T22:59:55.135Z,98088.64
2019-05-21T23:02:25.510Z,98085.20
2019-05-21T23:04:54.487Z,98080.89
2019-05-21T23:07:23.229Z,98086.57
2019-05-21T23:09:53.435Z,98079.17
2019-05-21T23:12:22.700Z,98079.18
2019-05-21T23:14:51.867Z,98068.78
2019-05-21T23:17:21.173Z,98077.92
2019-05-21T23:19:50.529Z,98086.19
2019-05-21T23:22:22.316Z,98083.58
2019-05-21T23:24:51.126Z,98087.48
2019-05-21T23:27:20.876Z,98084.42
2019-05-21T23:29:50.060Z,98092.66
2019-05-21T23:32:18.861Z,98089.21
2019-05-21T23:34:47.614Z,98090.96
2019-05-21T23:37:17.881Z,98089.64
2019-05-21T23:39:48.151Z,98097.46
2019-05-21T23:42:28.651Z,98089.22
2019-05-21T23:44:47.388Z,98093.13
2019-05-21T23:47:16.130Z,98080.95
2019-05-21T23:49:44.840Z,98078.34
2019-05-21T23:52:13.543Z,98083.57
2019-05-21T23:54:42.303Z,98081.82
2019-05-21T23:57:14.184Z,98086.17
2019-05-21T23:59:42.894Z,98083.14
